Time;durP1;ratioP1;P1;durP2;ratioP2;P2;SDS_P1;SDS_P2;PMS_P1;PMS_P2;Temp;Humidity;BMP_temperature;BMP_pressure;BME280_temperature;BME280_humidity;BME280_pressure;Samples;Min_cycle;Max_cycle;Signal;HPM_P1;HPM_P2
2022/03/25 00:01:29;;;;;;;25.98;18.15;;;11.20;70.90;;;;;;5034760;28;20026;-59
2022/03/25 00:03:54;;;;;;;28.45;19.33;;;11.20;70.50;;;;;;5035448;28;20488;-58
2022/03/25 00:06:22;;;;;;;24.95;18.85;;;11.10;70.50;;;;;;5034984;28;20032;-53
2022/03/25 00:08:48;;;;;;;30.30;18.58;;;11.10;70.70;;;;;;5034801;28;20047;-59
2022/03/25 00:11:14;;;;;;;31.55;19.30;;;11.10;70.80;;;;;;5034786;28;20044;-61
2022/03/25 00:13:40;;;;;;;24.85;17.67;;;11.10;70.90;;;;;;5034964;28;20034;-59
2022/03/25 00:16:07;;;;;;;26.13;17.77;;;11.20;70.60;;;;;;5034608;28;20477;-57
2022/03/25 00:18:33;;;;;;;26.38;18.65;;;11.20;70.70;;;;;;5034411;28;20045;-55
2022/03/25 00:20:59;;;;;;;24.67;17.00;;;11.10;70.90;;;;;;5034769;28;20025;-56
2022/03/25 00:23:26;;;;;;;27.75;18.73;;;11.10;70.70;;;;;;5034745;28;20057;-55
2022/03/25 00:25:52;;;;;;;29.50;18.33;;;11.10;70.40;;;;;;5034464;28;20028;-54
2022/03/25 00:28:19;;;;;;;25.20;18.23;;;11.20;70.60;;;;;;5034457;28;20036;-55
2022/03/25 00:30:45;;;;;;;24.15;17.23;;;11.20;70.60;;;;;;5032312;28;20045;-61
2022/03/25 00:33:11;;;;;;;25.77;16.88;;;11.20;70.70;;;;;;5034267;28;20445;-56
2022/03/25 00:35:37;;;;;;;24.08;16.80;;;11.20;70.40;;;;;;5034605;28;20071;-54
2022/03/25 00:38:03;;;;;;;24.05;16.17;;;11.30;70.50;;;;;;5032357;28;20132;-58
2022/03/25 00:40:28;;;;;;;26.70;16.38;;;11.30;69.60;;;;;;5048942;28;20040;-55
2022/03/25 00:42:54;;;;;;;23.35;15.95;;;11.40;69.50;;;;;;5032101;28;20068;-59
2022/03/25 00:45:21;;;;;;;24.50;14.98;;;11.40;69.20;;;;;;5048955;28;20037;-59
2022/03/25 00:47:47;;;;;;;25.67;14.48;;;11.40;69.20;;;;;;5033774;28;20049;-57
2022/03/25 00:50:13;;;;;;;26.27;16.20;;;11.40;69.20;;;;;;5032210;28;20056;-62
2022/03/25 00:52:39;;;;;;;26.10;15.95;;;11.40;69.30;;;;;;5033879;28;20034;-59
2022/03/25 00:55:06;;;;;;;26.77;16.13;;;11.40;69.10;;;;;;5034314;28;20358;-60
2022/03/25 00:57:32;;;;;;;20.73;15.20;;;11.40;69.40;;;;;;5048389;28;20120;-62
2022/03/25 00:59:57;;;;;;;23.27;16.30;;;11.30;69.40;;;;;;5033744;28;20556;-59
2022/03/25 01:02:23;;;;;;;20.55;15.35;;;11.40;69.50;;;;;;5033441;28;20497;-55
2022/03/25 01:04:50;;;;;;;19.73;14.15;;;11.30;69.40;;;;;;5033688;28;20063;-60
2022/03/25 01:07:17;;;;;;;23.13;14.63;;;11.20;69.70;;;;;;5033700;28;20370;-58
2022/03/25 01:09:44;;;;;;;21.17;14.18;;;11.30;69.50;;;;;;5033688;28;20120;-61
2022/03/25 01:12:11;;;;;;;20.77;13.68;;;11.20;69.20;;;;;;5033624;28;20029;-56
2022/03/25 01:14:37;;;;;;;19.05;14.23;;;11.30;69.40;;;;;;5031837;28;20042;-54
2022/03/25 01:17:03;;;;;;;19.67;14.40;;;11.30;69.40;;;;;;5048415;28;20068;-59
2022/03/25 01:19:28;;;;;;;29.20;14.57;;;11.30;69.70;;;;;;5033481;28;20036;-55
2022/03/25 01:21:56;;;;;;;22.27;15.13;;;11.20;70.30;;;;;;5031549;28;20045;-56
2022/03/25 01:24:22;;;;;;;19.77;14.38;;;11.10;70.60;;;;;;5033425;28;20055;-58
2022/03/25 01:26:49;;;;;;;27.08;19.98;;;11.10;70.40;;;;;;5033858;28;20033;-59
2022/03/25 01:29:15;;;;;;;23.90;16.77;;;11.10;69.90;;;;;;5033444;28;20558;-57
2022/03/25 01:31:41;;;;;;;26.20;18.73;;;11.30;69.60;;;;;;5033641;28;20029;-59
2022/03/25 01:34:07;;;;;;;27.38;21.23;;;11.10;70.00;;;;;;5033262;28;20033;-62
2022/03/25 01:36:33;;;;;;;25.88;20.33;;;11.00;69.90;;;;;;5031486;28;20037;-61
2022/03/25 01:38:59;;;;;;;22.17;19.10;;;11.10;70.10;;;;;;5033143;28;20362;-59
2022/03/25 01:41:25;;;;;;;18.55;13.23;;;11.00;70.10;;;;;;5048099;28;20091;-59
2022/03/25 01:43:56;;;;;;;22.38;15.57;;;10.90;70.00;;;;;;5033742;28;20029;-56
2022/03/25 01:46:23;;;;;;;22.08;15.23;;;10.90;70.40;;;;;;5033061;28;20037;-54
2022/03/25 01:48:49;;;;;;;19.92;14.20;;;10.80;70.70;;;;;;5033221;28;20033;-57
2022/03/25 01:51:19;;;;;;;19.38;14.18;;;10.80;71.40;;;;;;5031331;28;20128;-56
2022/03/25 01:53:47;;;;;;;23.55;14.95;;;10.70;70.60;;;;;;5033536;28;20389;-56
2022/03/25 01:56:22;;;;;;;23.23;14.35;;;10.90;70.60;;;;;;5033148;28;20108;-56
2022/03/25 01:58:48;;;;;;;19.77;14.20;;;10.90;70.30;;;;;;5032945;28;20472;-57
2022/03/25 02:01:15;;;;;;;21.05;14.63;;;11.00;70.20;;;;;;5033548;28;20029;-58
2022/03/25 02:03:41;;;;;;;18.23;13.85;;;11.00;70.20;;;;;;5033198;28;20044;-60
2022/03/25 02:06:07;;;;;;;19.42;14.73;;;11.00;70.20;;;;;;5031150;28;20066;-54
2022/03/25 02:08:33;;;;;;;21.52;13.57;;;11.00;70.60;;;;;;5032997;28;20091;-58
2022/03/25 02:10:59;;;;;;;18.80;13.40;;;11.00;70.10;;;;;;5032894;28;20416;-60
2022/03/25 02:13:25;;;;;;;19.10;13.73;;;11.10;70.00;;;;;;5033006;28;20088;-59
2022/03/25 02:15:52;;;;;;;19.50;11.48;;;11.00;70.40;;;;;;5034717;28;20077;-56
2022/03/25 02:18:18;;;;;;;21.88;12.77;;;10.80;70.40;;;;;;5037046;28;20120;-59
2022/03/25 02:20:46;;;;;;;21.45;13.38;;;10.80;70.60;;;;;;5036811;28;20432;-58
2022/03/25 02:23:13;;;;;;;17.88;12.90;;;10.90;70.50;;;;;;5036736;28;20116;-60
2022/03/25 02:25:40;;;;;;;17.40;12.23;;;10.80;70.30;;;;;;5051657;28;20061;-60
2022/03/25 02:28:06;;;;;;;16.85;11.63;;;10.90;70.20;;;;;;5036725;28;20147;-58
2022/03/25 02:30:34;;;;;;;20.48;12.82;;;11.00;70.20;;;;;;5036815;28;20112;-61
2022/03/25 02:33:01;;;;;;;16.40;11.23;;;11.00;70.10;;;;;;5051364;28;20092;-56
2022/03/25 02:35:45;;;;;;;17.42;11.20;;;10.90;70.00;;;;;;5036939;28;20365;-57
2022/03/25 02:38:19;;;;;;;17.67;11.18;;;11.00;70.00;;;;;;5036641;28;20045;-57
2022/03/25 02:40:48;;;;;;;15.05;10.85;;;10.90;70.00;;;;;;5036700;28;20408;-60
2022/03/25 02:43:14;;;;;;;17.55;11.80;;;11.10;70.00;;;;;;5036885;28;20040;-56
2022/03/25 02:45:40;;;;;;;14.20;10.27;;;11.10;70.40;;;;;;5051231;28;20128;-57
2022/03/25 02:48:07;;;;;;;21.38;10.90;;;11.00;70.00;;;;;;5036216;28;20041;-57
2022/03/25 02:50:33;;;;;;;16.60;11.00;;;11.00;70.20;;;;;;5036459;28;20485;-55
2022/03/25 02:53:00;;;;;;;17.05;11.55;;;10.90;70.30;;;;;;5036581;28;20033;-53
2022/03/25 02:55:26;;;;;;;15.38;10.95;;;10.90;70.60;;;;;;5036192;28;20052;-58
2022/03/25 02:57:53;;;;;;;15.20;10.77;;;10.80;70.70;;;;;;5051103;28;20433;-60
2022/03/25 03:00:20;;;;;;;15.73;10.43;;;10.80;70.60;;;;;;5036553;28;20037;-57
2022/03/25 03:02:47;;;;;;;19.50;11.10;;;10.70;70.70;;;;;;5036382;28;20026;-58
2022/03/25 03:05:13;;;;;;;17.05;10.88;;;10.60;71.00;;;;;;5035891;28;20083;-58
2022/03/25 03:07:38;;;;;;;19.05;11.45;;;10.50;71.00;;;;;;5036091;28;20436;-57
2022/03/25 03:10:06;;;;;;;16.05;11.65;;;10.40;71.40;;;;;;5034222;28;20056;-59
2022/03/25 03:12:33;;;;;;;18.13;11.77;;;10.40;71.50;;;;;;5034006;28;20424;-61
2022/03/25 03:15:00;;;;;;;14.13;9.55;;;10.40;71.40;;;;;;5050583;28;20138;-53
2022/03/25 03:17:26;;;;;;;17.33;10.73;;;10.30;72.30;;;;;;5050360;28;20076;-58
2022/03/25 03:19:52;;;;;;;16.50;9.50;;;10.40;71.60;;;;;;5035684;28;20033;-57
2022/03/25 03:22:18;;;;;;;14.38;9.95;;;10.50;71.30;;;;;;5050512;28;20061;-54
2022/03/25 03:24:44;;;;;;;15.18;10.27;;;10.40;71.30;;;;;;5035964;28;20026;-56
2022/03/25 03:27:11;;;;;;;11.85;9.32;;;10.50;71.30;;;;;;5035079;28;20027;-58
2022/03/25 03:29:37;;;;;;;13.52;9.63;;;10.50;71.40;;;;;;5035459;28;20035;-57
2022/03/25 03:32:04;;;;;;;12.35;8.95;;;10.60;71.30;;;;;;5035793;28;20033;-56
2022/03/25 03:34:30;;;;;;;18.23;9.55;;;10.50;71.30;;;;;;5035748;28;20099;-56
2022/03/25 03:36:56;;;;;;;16.98;9.85;;;10.40;71.60;;;;;;5035460;28;20061;-59
2022/03/25 03:39:21;;;;;;;15.93;9.57;;;10.30;71.60;;;;;;5035525;28;20087;-59
2022/03/25 03:41:47;;;;;;;17.17;11.02;;;10.30;72.10;;;;;;5035363;28;20095;-58
2022/03/25 03:44:13;;;;;;;18.02;8.80;;;10.20;72.40;;;;;;5035297;28;20057;-57
2022/03/25 03:46:39;;;;;;;13.60;9.18;;;10.20;72.30;;;;;;5034984;28;20040;-59
2022/03/25 03:49:05;;;;;;;14.20;8.73;;;10.20;72.50;;;;;;5035292;28;20091;-56
2022/03/25 03:51:31;;;;;;;16.42;9.10;;;10.20;72.00;;;;;;5049875;28;20042;-60
2022/03/25 03:53:57;;;;;;;17.60;8.52;;;10.10;72.20;;;;;;5035214;28;20116;-59
2022/03/25 03:56:23;;;;;;;14.60;9.90;;;10.00;72.90;;;;;;5035558;28;20087;-60
2022/03/25 03:58:49;;;;;;;14.50;11.10;;;9.80;73.90;;;;;;5035005;28;20049;-57
2022/03/25 04:01:16;;;;;;;27.00;13.15;;;9.60;74.60;;;;;;5034993;28;20099;-56
2022/03/25 04:03:41;;;;;;;18.73;13.05;;;9.30;75.00;;;;;;5034901;28;20036;-55
2022/03/25 04:06:09;;;;;;;25.35;13.00;;;9.20;75.20;;;;;;5034845;28;20033;-56
2022/03/25 04:08:35;;;;;;;20.60;12.85;;;9.20;75.00;;;;;;5034729;28;20412;-56
2022/03/25 04:11:02;;;;;;;21.33;13.00;;;9.20;74.90;;;;;;5034843;28;20431;-56
2022/03/25 04:13:28;;;;;;;16.92;12.55;;;9.20;74.80;;;;;;5034825;28;20044;-58
2022/03/25 04:15:54;;;;;;;16.08;11.90;;;9.20;74.70;;;;;;5034832;28;20033;-55
2022/03/25 04:18:20;;;;;;;17.25;12.27;;;9.10;74.60;;;;;;5032738;28;20052;-60
2022/03/25 04:20:46;;;;;;;22.30;12.40;;;9.10;74.90;;;;;;5034484;28;20030;-58
2022/03/25 04:23:12;;;;;;;17.30;11.48;;;9.00;75.50;;;;;;5034715;28;20079;-62
2022/03/25 04:25:38;;;;;;;17.73;11.50;;;8.90;75.30;;;;;;5034331;28;20433;-57
2022/03/25 04:28:04;;;;;;;20.30;11.75;;;8.90;75.50;;;;;;5049395;28;20129;-61
2022/03/25 04:30:32;;;;;;;20.20;11.43;;;9.00;75.30;;;;;;5035046;28;20029;-59
2022/03/25 04:32:59;;;;;;;15.38;10.70;;;8.90;75.50;;;;;;5034499;28;20032;-55
2022/03/25 04:35:25;;;;;;;18.50;11.65;;;8.90;75.70;;;;;;5034365;28;20116;-56
2022/03/25 04:37:52;;;;;;;19.00;10.85;;;8.90;75.50;;;;;;5048106;28;20037;-60
2022/03/25 04:40:21;;;;;;;18.48;11.23;;;8.90;75.90;;;;;;5034449;28;20427;-57
2022/03/25 04:42:48;;;;;;;16.50;11.15;;;8.90;75.80;;;;;;5034064;28;20025;-60
2022/03/25 04:45:14;;;;;;;16.42;11.00;;;8.80;76.20;;;;;;5033757;28;20033;-57
2022/03/25 04:47:40;;;;;;;15.15;11.43;;;8.80;76.10;;;;;;5033827;28;20041;-55
2022/03/25 04:50:06;;;;;;;17.90;11.63;;;8.80;76.00;;;;;;5034117;28;20056;-56
2022/03/25 04:52:32;;;;;;;16.10;11.13;;;8.70;76.20;;;;;;5034496;28;20038;-58
2022/03/25 04:54:58;;;;;;;16.88;10.95;;;8.70;76.70;;;;;;5034079;28;20056;-56
2022/03/25 04:57:24;;;;;;;16.20;10.23;;;8.70;76.60;;;;;;5034062;28;20033;-57
2022/03/25 04:59:50;;;;;;;21.50;11.25;;;8.80;76.80;;;;;;5033711;28;20037;-58
2022/03/25 05:02:16;;;;;;;19.83;10.50;;;8.80;76.80;;;;;;5034097;28;20037;-56
2022/03/25 05:04:42;;;;;;;14.88;10.25;;;8.80;76.70;;;;;;5048551;28;20056;-59
2022/03/25 05:07:14;;;;;;;30.20;12.90;;;8.90;76.80;;;;;;5050066;28;20384;-58
2022/03/25 05:09:40;;;;;;;;;;;8.90;76.90;;;;;;5054149;28;20039;-53
2022/03/25 05:12:06;;;;;;;16.83;10.85;;;8.90;77.00;;;;;;5053540;28;19908;-55
2022/03/25 05:14:34;;;;;;;15.77;11.32;;;9.10;76.80;;;;;;5051774;28;20033;-57
2022/03/25 05:17:00;;;;;;;22.33;12.32;;;9.10;76.70;;;;;;5053274;28;20033;-53
2022/03/25 05:19:26;;;;;;;18.58;11.75;;;9.10;76.30;;;;;;5053772;28;20036;-56
2022/03/25 05:21:52;;;;;;;18.45;11.75;;;9.20;75.90;;;;;;5053508;28;20029;-56
2022/03/25 05:24:17;;;;;;;17.88;11.52;;;9.20;76.60;;;;;;5052906;28;20083;-56
2022/03/25 05:26:44;;;;;;;16.65;12.48;;;9.30;76.10;;;;;;5047247;28;20025;-57
2022/03/25 05:29:10;;;;;;;17.88;12.07;;;9.30;76.60;;;;;;5061696;28;20442;-56
2022/03/25 05:31:37;;;;;;;18.98;12.23;;;9.40;76.80;;;;;;5036303;28;20026;-55
2022/03/25 05:34:06;;;;;;;20.38;14.38;;;9.40;76.70;;;;;;5043739;28;20118;-56
2022/03/25 05:36:35;;;;;;;20.33;13.65;;;9.30;76.80;;;;;;5056976;28;20037;-55
2022/03/25 05:39:03;;;;;;;24.05;13.75;;;9.40;76.50;;;;;;5049781;28;20049;-58
2022/03/25 05:41:29;;;;;;;24.50;12.73;;;9.60;76.40;;;;;;5046490;28;20028;-57
2022/03/25 05:43:55;;;;;;;20.80;13.85;;;9.70;75.60;;;;;;5053348;28;20385;-59
2022/03/25 05:46:21;;;;;;;26.17;13.68;;;9.90;76.00;;;;;;5040413;28;20029;-55
2022/03/25 05:48:47;;;;;;;24.05;12.98;;;10.00;76.20;;;;;;5033169;28;20456;-59
2022/03/25 05:51:13;;;;;;;38.17;24.58;;;9.90;76.10;;;;;;5033334;28;20029;-57
2022/03/25 05:53:41;;;;;;;117.18;65.07;;;10.10;75.80;;;;;;5045465;28;20084;-57
2022/03/25 05:56:09;;;;;;;68.40;43.85;;;10.10;76.00;;;;;;5052778;28;20033;-59
2022/03/25 05:58:35;;;;;;;38.35;26.30;;;10.10;75.30;;;;;;5067948;28;20053;-55
2022/03/25 06:01:02;;;;;;;25.08;16.38;;;10.20;75.40;;;;;;5051142;28;20393;-59
2022/03/25 06:03:30;;;;;;;41.63;31.50;;;10.30;75.70;;;;;;5049138;28;20082;-51
2022/03/25 06:05:56;;;;;;;26.58;17.25;;;10.40;75.60;;;;;;5049282;28;20072;-53
2022/03/25 06:08:23;;;;;;;22.25;14.23;;;10.50;75.70;;;;;;5051110;28;20151;-55
2022/03/25 06:10:50;;;;;;;27.00;17.45;;;10.50;75.30;;;;;;5041643;28;20041;-49
2022/03/25 06:13:16;;;;;;;24.58;15.70;;;10.50;75.80;;;;;;5040198;28;20564;-61
2022/03/25 06:15:42;;;;;;;23.05;16.95;;;10.50;76.00;;;;;;5040035;28;20025;-56
2022/03/25 06:18:08;;;;;;;25.58;15.90;;;10.60;76.00;;;;;;5050439;28;20508;-52
2022/03/25 06:20:34;;;;;;;23.95;13.85;;;10.60;76.60;;;;;;5050723;28;20049;-57
2022/03/25 07:22:34;;;;;;;25.30;15.85;;;12.00;76.20;;;;;;5107646;27;20402;-52
2022/03/25 07:25:00;;;;;;;27.90;16.33;;;13.40;75.50;;;;;;5089165;28;20089;-53
2022/03/25 07:27:26;;;;;;;27.00;15.90;;;13.50;75.30;;;;;;5068872;28;20044;-50
2022/03/25 07:29:53;;;;;;;24.90;14.82;;;;;;;;;;5092612;28;20021;-49
2022/03/25 07:32:19;;;;;;;40.85;16.13;;;;;;;;;;5090024;28;20456;-52
2022/03/25 07:34:44;;;;;;;29.60;17.02;;;14.10;80.00;;;;;;5092544;28;20554;-51
2022/03/25 07:37:10;;;;;;;26.20;15.93;;;14.40;73.60;;;;;;5093727;28;20104;-51
2022/03/25 07:39:36;;;;;;;23.80;13.13;;;14.90;74.00;;;;;;5092183;28;20483;-51
2022/03/25 07:42:02;;;;;;;19.08;12.43;;;15.00;71.30;;;;;;5092872;28;20035;-52
2022/03/25 07:44:27;;;;;;;18.80;11.50;;;15.10;71.10;;;;;;5071519;28;20039;-51
2022/03/25 07:46:53;;;;;;;22.65;13.55;;;;;;;;;;5092649;28;20036;-51
2022/03/25 07:49:19;;;;;;;24.17;14.73;;;15.50;96.70;;;;;;5090070;28;20084;-54
2022/03/25 07:51:45;;;;;;;23.55;13.85;;;;;;;;;;5073507;28;20139;-50
2022/03/25 07:54:11;;;;;;;21.65;11.90;;;16.40;78.30;;;;;;5093006;28;20036;-51
2022/03/25 07:56:37;;;;;;;19.67;12.45;;;16.30;70.00;;;;;;5038993;28;20044;-52
2022/03/25 07:59:03;;;;;;;19.20;11.98;;;16.80;69.30;;;;;;5091322;28;20055;-50
2022/03/25 08:01:29;;;;;;;18.35;11.93;;;16.80;69.10;;;;;;5089985;28;20028;-50
2022/03/25 08:03:56;;;;;;;17.75;12.57;;;16.90;69.10;;;;;;5093292;28;20497;-52
2022/03/25 08:06:22;;;;;;;19.60;11.23;;;17.30;69.10;;;;;;5075490;28;20066;-51
2022/03/25 08:08:49;;;;;;;18.67;11.25;;;17.20;68.30;;;;;;5091129;28;20028;-49
2022/03/25 08:11:17;;;;;;;14.40;10.65;;;17.60;67.50;;;;;;5089339;28;20044;-52
2022/03/25 08:13:43;;;;;;;14.68;10.82;;;17.60;67.70;;;;;;5091820;28;20078;-54
2022/03/25 08:16:09;;;;;;;16.00;10.48;;;18.10;77.50;;;;;;5090042;28;20041;-53
2022/03/25 08:18:35;;;;;;;17.15;11.60;;;18.60;91.80;;;;;;5090134;28;20040;-56
2022/03/25 08:21:01;;;;;;;18.00;12.18;;;;;;;;;;5089455;28;20056;-53
2022/03/25 08:28:59;;;;;;;28.40;14.43;;;19.50;91.60;;;;;;5074762;28;20040;-49
2022/03/25 08:31:25;;;;;;;18.17;11.90;;;19.20;92.90;;;;;;5074639;28;20074;-49
2022/03/25 08:33:51;;;;;;;23.27;13.55;;;18.40;93.00;;;;;;5041883;28;20472;-53
2022/03/25 08:36:18;;;;;;;20.73;13.00;;;18.80;93.90;;;;;;5057530;28;20434;-55
2022/03/25 08:38:44;;;;;;;18.70;12.93;;;19.20;73.10;;;;;;5075997;28;20028;-53
2022/03/25 08:41:10;;;;;;;19.63;12.98;;;;;;;;;;5074296;28;20028;-50
2022/03/25 08:43:36;;;;;;;22.20;12.63;;;;;;;;;;5076007;28;20070;-52
2022/03/25 08:46:03;;;;;;;23.00;13.00;;;;;;;;;;5074463;28;20047;-50
2022/03/25 08:48:30;;;;;;;16.05;11.40;;;;;;;;;;5073171;28;20047;-50
2022/03/25 08:50:56;;;;;;;16.50;11.90;;;;;;;;;;5057665;28;20047;-50
2022/03/25 08:53:22;;;;;;;15.85;11.18;;;;;;;;;;5075055;28;20051;-51
2022/03/25 08:55:48;;;;;;;23.00;11.50;;;;;;;;;;5073110;28;20575;-49
2022/03/25 08:58:15;;;;;;;12.90;9.13;;;;;;;;;;5057993;28;20483;-48
2022/03/25 09:00:41;;;;;;;19.35;9.25;;;;;;;;;;5073031;28;20028;-51
2022/03/25 09:03:06;;;;;;;13.77;8.73;;;19.80;62.80;;;;;;5075442;28;20071;-49
2022/03/25 09:05:32;;;;;;;10.63;8.18;;;19.70;63.10;;;;;;5074210;28;20423;-51
2022/03/25 09:07:58;;;;;;;15.13;7.93;;;20.70;62.70;;;;;;5075173;28;20029;-50
2022/03/25 09:10:24;;;;;;;13.25;8.55;;;20.20;62.10;;;;;;5073793;28;20117;-46
2022/03/25 09:12:50;;;;;;;14.15;8.10;;;20.40;61.70;;;;;;5031892;28;20041;-48
2022/03/25 09:15:16;;;;;;;15.68;7.72;;;21.00;61.70;;;;;;5077561;28;20033;-48
2022/03/25 09:17:45;;;;;;;12.77;8.70;;;21.20;61.40;;;;;;5071309;28;20032;-48
2022/03/25 09:20:13;;;;;;;14.02;9.20;;;21.40;61.50;;;;;;5074313;28;20025;-51
2022/03/25 09:22:39;;;;;;;14.27;9.55;;;;;;;;;;5076852;28;20020;-48
2022/03/25 09:25:07;;;;;;;14.32;8.85;;;;;;;;;;5078342;28;20444;-48
2022/03/25 09:27:33;;;;;;;13.90;10.30;;;22.20;92.80;;;;;;5077038;28;20039;-52
2022/03/25 09:29:58;;;;;;;13.45;8.27;;;22.20;72.90;;;;;;5078913;28;20032;-50
2022/03/25 09:32:24;;;;;;;13.88;8.27;;;20.80;60.00;;;;;;5026498;28;20126;-48
2022/03/25 09:35:09;;;;;;;10.57;7.85;;;21.00;61.00;;;;;;5056011;28;20037;-50
2022/03/25 09:37:42;;;;;;;11.93;7.75;;;;;;;;;;5078738;28;20024;-49
2022/03/25 09:40:14;;;;;;;13.30;8.73;;;22.70;58.80;;;;;;5073731;28;20016;-48
2022/03/25 09:42:41;;;;;;;11.18;8.43;;;;;;;;;;5049194;28;20126;-52
2022/03/25 09:45:09;;;;;;;17.27;10.25;;;22.80;58.90;;;;;;5080232;28;20457;-51
2022/03/25 09:47:35;;;;;;;11.95;7.93;;;22.40;60.50;;;;;;5074894;28;20491;-53
2022/03/25 09:50:03;;;;;;;10.80;7.05;;;22.60;59.60;;;;;;5070025;28;20123;-54
2022/03/25 09:52:31;;;;;;;10.57;6.13;;;21.90;59.60;;;;;;5058546;28;20158;-50
2022/03/25 09:54:58;;;;;;;9.85;6.68;;;22.10;58.30;;;;;;5075725;28;20067;-50
2022/03/25 09:57:26;;;;;;;11.32;6.65;;;21.60;58.60;;;;;;5074916;28;20032;-48
2022/03/25 09:59:52;;;;;;;10.00;6.97;;;22.10;59.40;;;;;;5074710;28;20387;-47
2022/03/25 10:02:18;;;;;;;11.00;7.30;;;22.10;59.30;;;;;;5073590;28;20027;-51
2022/03/25 10:04:49;;;;;;;12.07;7.53;;;22.60;60.00;;;;;;5077609;28;20056;-52
2022/03/25 10:07:18;;;;;;;10.70;6.57;;;22.20;59.70;;;;;;5072866;28;20071;-50
2022/03/25 10:09:45;;;;;;;13.27;6.55;;;22.50;59.20;;;;;;5073265;28;20028;-51
2022/03/25 10:12:24;;;;;;;11.60;6.63;;;22.70;59.20;;;;;;5075411;28;20033;-49
2022/03/25 10:14:51;;;;;;;10.90;6.18;;;;;;;;;;5054594;28;20028;-50
2022/03/25 10:17:19;;;;;;;9.45;6.50;;;24.20;58.50;;;;;;5054418;28;20037;-51
2022/03/25 10:19:52;;;;;;;11.88;7.18;;;23.90;60.40;;;;;;5073624;28;20035;-52
2022/03/25 10:22:19;;;;;;;9.70;6.38;;;24.30;59.40;;;;;;5073343;28;20059;-49
2022/03/25 10:24:54;;;;;;;9.20;6.45;;;24.70;71.90;;;;;;5072485;28;20086;-49
2022/03/25 10:27:24;;;;;;;11.73;6.53;;;;;;;;;;5073024;28;20062;-53
2022/03/25 10:29:54;;;;;;;10.57;6.55;;;24.70;57.90;;;;;;5073503;28;20476;-51
2022/03/25 10:32:25;;;;;;;9.35;6.55;;;23.40;57.70;;;;;;5073715;28;20033;-51
2022/03/25 10:35:10;;;;;;;10.13;6.65;;;23.20;58.30;;;;;;5073601;28;20032;-54
2022/03/25 10:37:55;;;;;;;11.00;6.97;;;23.80;58.30;;;;;;5072626;28;20430;-54
2022/03/25 10:40:21;;;;;;;10.88;6.78;;;24.90;59.40;;;;;;5073137;28;20388;-54
2022/03/25 10:43:13;;;;;;;6.93;5.90;;;25.50;69.10;;;;;;5073374;28;20051;-52
2022/03/25 10:45:40;;;;;;;;;;;25.60;57.40;;;;;;5070845;28;20043;-53
2022/03/25 10:48:21;;;;;;;9.57;5.88;;;25.70;56.80;;;;;;5073207;28;20291;-55
2022/03/25 10:51:01;;;;;;;10.35;5.85;;;24.60;57.90;;;;;;5073535;28;20048;-57
2022/03/25 10:53:28;;;;;;;10.40;6.10;;;23.60;56.90;;;;;;5073533;28;20035;-55
2022/03/25 10:56:12;;;;;;;9.98;5.85;;;23.60;57.10;;;;;;5073286;28;20029;-53
2022/03/25 10:58:38;;;;;;;10.15;6.18;;;23.70;58.40;;;;;;5073243;28;20035;-53
2022/03/25 11:01:06;;;;;;;11.75;5.93;;;24.10;58.20;;;;;;5073345;28;20340;-55
2022/03/25 11:03:32;;;;;;;9.32;5.63;;;24.20;58.80;;;;;;5073444;28;20094;-53
2022/03/25 11:05:58;;;;;;;7.85;5.60;;;23.90;57.90;;;;;;5073214;28;20021;-52
2022/03/25 11:08:24;;;;;;;9.70;6.00;;;23.90;58.60;;;;;;5073221;28;20375;-53
2022/03/25 11:10:52;;;;;;;9.25;6.25;;;;;;;;;;5073324;28;20036;-53
2022/03/25 11:13:18;;;;;;;9.07;5.32;;;25.20;90.90;;;;;;5073442;28;20025;-54
2022/03/25 11:15:46;;;;;;;10.65;5.82;;;24.50;73.40;;;;;;5072237;28;20038;-53
2022/03/25 11:18:13;;;;;;;7.68;5.32;;;24.60;61.90;;;;;;5072114;28;20031;-52
2022/03/25 11:20:40;;;;;;;9.05;4.90;;;;;;;;;;5071977;28;20070;-53
2022/03/25 11:23:11;;;;;;;7.85;5.25;;;;;;;;;;5072502;28;20047;-52
2022/03/25 11:25:45;;;;;;;10.25;5.43;;;25.80;57.30;;;;;;5068739;28;20037;-56
2022/03/25 11:28:19;;;;;;;10.35;5.90;;;24.90;57.20;;;;;;5060714;28;20129;-50
2022/03/25 11:30:55;;;;;;;8.77;6.03;;;24.10;57.00;;;;;;5066391;28;20133;-44
2022/03/25 11:33:21;;;;;;;8.27;5.93;;;23.90;58.10;;;;;;5070668;28;20115;-45
2022/03/25 11:35:47;;;;;;;11.13;6.00;;;24.40;58.10;;;;;;5070118;28;20162;-45
2022/03/25 11:38:15;;;;;;;28.98;7.85;;;24.10;57.30;;;;;;5081974;28;20037;-46
2022/03/25 11:40:43;;;;;;;35.67;8.27;;;25.30;57.20;;;;;;5052193;28;20033;-45
2022/03/25 11:43:20;;;;;;;19.35;7.25;;;25.70;58.50;;;;;;5050292;28;20444;-44
2022/03/25 11:46:01;;;;;;;8.60;6.45;;;24.80;57.60;;;;;;5071217;28;20023;-49
2022/03/25 11:48:27;;;;;;;12.93;6.33;;;25.00;59.90;;;;;;5071187;28;20604;-49
2022/03/25 11:50:55;;;;;;;9.82;5.63;;;25.10;58.10;;;;;;5071273;28;20036;-51
2022/03/25 11:53:22;;;;;;;9.27;6.20;;;25.00;57.30;;;;;;5071090;28;20025;-53
2022/03/25 11:56:09;;;;;;;12.23;6.30;;;24.90;58.50;;;;;;5068381;28;20028;-53
2022/03/25 11:58:39;;;;;;;8.93;6.72;;;24.20;57.90;;;;;;5072807;28;20028;-48
2022/03/25 12:01:15;;;;;;;9.73;5.93;;;23.80;57.60;;;;;;5033006;28;20047;-51
2022/03/25 12:03:53;;;;;;;8.85;5.93;;;23.50;58.50;;;;;;5033076;28;20128;-49
2022/03/25 12:06:27;;;;;;;7.22;5.55;;;23.70;59.70;;;;;;5012596;28;20046;-53
2022/03/25 12:09:02;;;;;;;8.10;6.35;;;23.70;58.30;;;;;;5012054;28;20038;-48
2022/03/25 12:11:46;;;;;;;7.75;5.68;;;23.80;59.20;;;;;;5011305;28;20053;-50
2022/03/25 12:14:11;;;;;;;11.43;5.57;;;23.40;58.80;;;;;;5012272;28;20041;-49
2022/03/25 12:16:49;;;;;;;8.23;5.70;;;23.60;58.30;;;;;;5011754;28;20041;-48
2022/03/25 12:19:28;;;;;;;11.90;5.63;;;24.10;57.80;;;;;;5012352;28;20045;-50
2022/03/25 12:21:57;;;;;;;9.27;5.60;;;24.00;58.00;;;;;;5010084;28;20089;-51
2022/03/25 12:24:24;;;;;;;7.07;5.95;;;23.70;58.60;;;;;;5012561;28;20175;-51
2022/03/25 12:27:02;;;;;;;7.18;5.47;;;23.60;59.20;;;;;;5013298;28;20133;-53
2022/03/25 12:29:30;;;;;;;9.13;5.85;;;23.60;58.00;;;;;;4978648;28;20059;-51
2022/03/25 12:31:57;;;;;;;11.05;6.82;;;24.50;57.60;;;;;;5030050;28;20427;-51
2022/03/25 12:35:07;;;;;;;8.73;6.05;;;24.70;58.80;;;;;;5053144;28;20033;-53
2022/03/25 12:37:39;;;;;;;16.23;5.60;;;24.90;87.70;;;;;;5048165;28;20577;-52
2022/03/25 12:40:20;;;;;;;12.50;5.85;;;25.00;73.00;;;;;;5075682;28;20028;-50
2022/03/25 12:43:04;;;;;;;18.90;6.15;;;24.40;73.60;;;;;;5075665;28;20111;-52
2022/03/25 12:45:33;;;;;;;10.63;6.65;;;23.80;58.30;;;;;;5073809;28;20028;-52
2022/03/25 12:48:09;;;;;;;10.45;6.07;;;23.80;58.50;;;;;;5075794;28;20498;-51
2022/03/25 12:50:37;;;;;;;20.98;13.98;;;23.50;59.00;;;;;;5075639;28;20063;-49
2022/03/25 12:53:05;;;;;;;26.55;15.90;;;23.20;58.20;;;;;;5076009;28;20115;-50
2022/03/25 12:55:32;;;;;;;26.42;17.30;;;23.40;57.20;;;;;;5074557;28;20024;-51
2022/03/25 12:58:03;;;;;;;32.40;22.33;;;23.40;57.60;;;;;;5075029;28;20357;-53
2022/03/25 13:00:40;;;;;;;8.50;5.07;;;23.50;57.90;;;;;;5056553;28;20035;-50
2022/03/25 13:03:08;;;;;;;10.05;6.32;;;23.30;58.60;;;;;;5075668;28;20028;-54
2022/03/25 13:05:35;;;;;;;11.18;6.00;;;23.30;58.80;;;;;;5056903;28;20047;-51
2022/03/25 13:08:02;;;;;;;55.72;30.13;;;23.30;58.30;;;;;;5075586;28;20371;-51
2022/03/25 13:10:29;;;;;;;9.52;6.10;;;23.80;57.30;;;;;;5056868;28;20048;-50
2022/03/25 13:12:57;;;;;;;11.57;6.95;;;23.60;57.60;;;;;;5075295;28;20419;-49
2022/03/25 13:15:31;;;;;;;11.48;7.93;;;23.10;57.50;;;;;;5053047;28;20037;-53
2022/03/25 13:17:59;;;;;;;9.25;6.07;;;23.70;59.10;;;;;;5053081;28;20045;-53
2022/03/25 13:20:31;;;;;;;8.30;5.22;;;23.70;57.10;;;;;;5036049;28;20040;-51
2022/03/25 13:23:05;;;;;;;48.28;18.25;;;24.00;57.20;;;;;;5019500;28;20044;-53
2022/03/25 13:25:36;;;;;;;15.25;9.40;;;24.10;57.00;;;;;;5052910;28;20037;-53
2022/03/25 13:28:04;;;;;;;16.90;7.80;;;23.60;57.50;;;;;;5052780;28;20037;-50
2022/03/25 13:30:30;;;;;;;17.25;6.85;;;24.10;58.80;;;;;;5019396;28;20139;-50
2022/03/25 13:33:03;;;;;;;12.63;6.53;;;24.20;58.80;;;;;;5052766;28;20036;-53
2022/03/25 13:35:40;;;;;;;20.15;10.52;;;24.70;58.20;;;;;;5052504;28;20037;-52
2022/03/25 13:38:10;;;;;;;10.63;6.63;;;25.00;74.30;;;;;;5035859;28;20068;-50
2022/03/25 13:40:40;;;;;;;11.27;6.00;;;25.10;69.30;;;;;;5052325;28;20041;-50
2022/03/25 13:43:08;;;;;;;10.98;5.40;;;24.40;57.90;;;;;;5017229;28;20074;-54
2022/03/25 13:45:34;;;;;;;13.10;6.78;;;24.10;73.50;;;;;;5002925;28;20042;-50
2022/03/25 13:48:12;;;;;;;8.20;6.43;;;23.60;57.10;;;;;;5019888;28;20045;-53
2022/03/25 13:50:53;;;;;;;10.32;7.15;;;23.60;57.90;;;;;;5030659;28;20037;-50